Time;durP1;ratioP1;P1;durP2;ratioP2;P2;SDS_P1;SDS_P2;PMS_P1;PMS_P2;Temp;Humidity;BMP_temperature;BMP_pressure;BME280_temperature;BME280_humidity;BME280_pressure;Samples;Min_cycle;Max_cycle;Signal;HPM_P1;HPM_P2
2023/12/08 00:00:35;;;;;;;123.18;88.15;;;;;;;12.14;nan;98968.84;5037860;28;20141;-69
2023/12/08 00:03:05;;;;;;;127.95;86.60;;;;;;;12.09;nan;98965.97;5056804;28;20052;-69
2023/12/08 00:05:35;;;;;;;120.05;86.35;;;;;;;12.07;nan;98965.38;5063383;28;20044;-67
2023/12/08 00:08:04;;;;;;;138.43;88.22;;;;;;;12.04;nan;98963.91;5045988;28;20140;-66
2023/12/08 00:10:34;;;;;;;128.30;87.63;;;;;;;12.03;nan;98962.28;5053574;28;20044;-68
2023/12/08 00:13:04;;;;;;;133.07;88.40;;;;;;;12.04;nan;98971.88;5057494;28;20052;-69
2023/12/08 00:15:34;;;;;;;115.68;85.40;;;;;;;12.01;nan;98974.09;5056576;28;20059;-68
2023/12/08 00:18:03;;;;;;;126.75;86.82;;;;;;;11.95;nan;98977.53;5066426;28;20063;-69
2023/12/08 00:20:33;;;;;;;130.35;85.65;;;;;;;11.95;nan;98977.53;5042848;28;20049;-68
2023/12/08 00:23:02;;;;;;;131.70;85.80;;;;;;;12.05;nan;98970.03;5063361;28;20072;-69
2023/12/08 00:25:32;;;;;;;122.13;85.28;;;;;;;12.24;nan;98971.16;5066128;28;20114;-68
2023/12/08 00:28:03;;;;;;;123.47;84.60;;;;;;;12.19;nan;98974.41;5048649;28;20741;-69
2023/12/08 00:30:33;;;;;;;132.85;90.28;;;;;;;12.12;nan;98974.38;5064495;28;20052;-68
2023/12/08 00:33:05;;;;;;;124.45;87.50;;;;;;;12.14;nan;98975.00;5064562;28;20056;-69
2023/12/08 00:35:35;;;;;;;130.05;84.95;;;;;;;12.04;nan;98976.34;5064827;28;20048;-68
2023/12/08 00:38:04;;;;;;;128.32;85.63;;;;;;;12.17;nan;98980.94;5048206;28;20105;-69
2023/12/08 00:40:34;;;;;;;119.63;85.00;;;;;;;12.14;nan;98979.47;5075702;28;20045;-68
2023/12/08 00:43:03;;;;;;;131.18;84.95;;;;;;;12.09;nan;98995.16;5056329;28;20052;-69
2023/12/08 00:45:32;;;;;;;131.48;86.97;;;;;;;12.21;nan;98987.50;5065138;28;20943;-68
2023/12/08 00:48:02;;;;;;;118.20;84.88;;;;;;;12.21;nan;98998.94;5065872;28;20374;-70
2023/12/08 00:50:32;;;;;;;119.53;84.65;;;;;;;12.23;nan;98996.91;5059940;28;20040;-68
2023/12/08 00:53:01;;;;;;;114.38;83.35;;;;;;;12.15;nan;98999.72;5060363;28;20399;-68
2023/12/08 00:55:30;;;;;;;114.53;82.30;;;;;;;12.15;nan;99010.34;5065149;28;20055;-67
2023/12/08 00:58:00;;;;;;;118.43;82.55;;;;;;;12.11;nan;99015.22;5058964;28;20629;-67
2023/12/08 01:00:29;;;;;;;116.07;82.53;;;;;;;12.14;nan;99009.50;5066631;28;20114;-67
2023/12/08 01:02:59;;;;;;;122.90;82.78;;;;;;;12.27;nan;99010.59;5061215;28;20048;-67
2023/12/08 01:05:29;;;;;;;112.60;80.15;;;;;;;12.31;nan;99019.81;5064613;28;20323;-67
2023/12/08 01:07:59;;;;;;;110.13;79.53;;;;;;;12.06;nan;99022.13;5050839;28;20049;-67
2023/12/08 01:10:29;;;;;;;116.22;81.45;;;;;;;12.07;nan;99018.47;5065155;28;20048;-67
2023/12/08 01:12:58;;;;;;;111.43;82.72;;;;;;;11.94;nan;99023.69;5065720;28;20049;-66
2023/12/08 01:15:27;;;;;;;117.20;83.43;;;;;;;11.88;nan;99030.56;5065967;28;20113;-67
2023/12/08 01:17:57;;;;;;;118.20;84.00;;;;;;;11.88;nan;99037.69;5063839;28;20040;-67
2023/12/08 01:20:26;;;;;;;113.22;81.90;;;;;;;11.83;nan;99032.16;5062381;28;20045;-67
2023/12/08 01:22:56;;;;;;;113.38;84.35;;;;;;;11.86;nan;99035.22;5075914;28;20052;-67
2023/12/08 01:25:25;;;;;;;114.47;82.47;;;;;;;11.89;nan;99036.69;5061026;28;20058;-67
2023/12/08 01:27:55;;;;;;;129.43;83.78;;;;;;;11.84;nan;99025.84;5061673;28;20048;-67
2023/12/08 01:30:26;;;;;;;124.35;85.32;;;;;;;11.78;nan;99031.91;5041852;28;20055;-68
2023/12/08 01:32:55;;;;;;;111.30;82.43;;;;;;;11.77;nan;99035.59;5055747;28;20425;-67
2023/12/08 01:35:25;;;;;;;121.10;84.95;;;;;;;11.89;nan;99031.38;5041162;28;20052;-68
2023/12/08 01:37:55;;;;;;;118.43;83.55;;;;;;;11.89;nan;99037.53;5062280;28;20632;-67
2023/12/08 01:40:25;;;;;;;116.85;83.45;;;;;;;11.78;nan;99040.69;5062193;28;20048;-67
2023/12/08 01:42:55;;;;;;;119.40;82.15;;;;;;;11.75;nan;99034.94;5049068;28;20613;-67
2023/12/08 01:45:24;;;;;;;118.28;82.82;;;;;;;11.72;nan;99038.81;5062700;28;20718;-68
2023/12/08 01:47:53;;;;;;;120.38;86.15;;;;;;;11.70;nan;99038.97;5062093;28;20054;-67
2023/12/08 01:50:23;;;;;;;121.70;83.45;;;;;;;11.67;nan;99044.66;5062886;28;20106;-67
2023/12/08 01:52:53;;;;;;;115.97;81.97;;;;;;;11.68;nan;99050.78;5059124;28;20060;-67
2023/12/08 01:55:22;;;;;;;119.05;82.68;;;;;;;11.69;nan;99052.41;5045540;28;20123;-67
2023/12/08 01:57:53;;;;;;;122.65;85.90;;;;;;;11.81;nan;99056.25;5062980;28;20052;-67
2023/12/08 02:00:23;;;;;;;115.35;85.00;;;;;;;11.73;nan;99047.59;5062824;28;20548;-68
2023/12/08 02:02:52;;;;;;;112.78;84.88;;;;;;;11.70;nan;99046.09;5060280;28;20147;-67
2023/12/08 02:05:23;;;;;;;117.53;84.72;;;;;;;11.69;nan;99045.28;5062379;28;20052;-68
2023/12/08 02:07:54;;;;;;;119.75;87.63;;;;;;;11.73;nan;99053.69;5063605;28;20044;-67
2023/12/08 02:10:24;;;;;;;121.55;87.35;;;;;;;11.82;nan;99057.84;5045661;28;20045;-68
2023/12/08 02:12:53;;;;;;;125.97;87.35;;;;;;;11.85;nan;99056.66;5042732;28;20123;-67
2023/12/08 02:15:23;;;;;;;132.95;88.75;;;;;;;11.79;nan;99065.38;5045947;28;20044;-68
2023/12/08 02:17:52;;;;;;;129.52;89.53;;;;;;;11.79;nan;99073.34;5059877;28;20040;-67
2023/12/08 02:20:22;;;;;;;121.55;89.60;;;;;;;11.73;nan;99071.47;5059755;28;20059;-68
2023/12/08 02:22:51;;;;;;;134.73;88.63;;;;;;;11.82;nan;99081.75;5062668;28;20101;-68
2023/12/08 02:25:21;;;;;;;125.25;87.47;;;;;;;11.78;nan;99087.63;5063038;28;20053;-68
2023/12/08 02:27:50;;;;;;;116.75;83.57;;;;;;;11.70;nan;99096.50;5063467;28;20565;-68
2023/12/08 02:30:19;;;;;;;119.80;86.47;;;;;;;11.76;nan;99092.31;5061763;28;20055;-68
2023/12/08 02:32:58;;;;;;;123.53;85.03;;;;;;;11.94;nan;99092.69;5060589;28;20074;-68
2023/12/08 02:35:32;;;;;;;121.28;82.55;;;;;;;12.03;nan;99096.84;5060405;28;20059;-67
2023/12/08 02:38:02;;;;;;;126.00;87.07;;;;;;;12.05;nan;99105.41;5066205;28;20485;-68
2023/12/08 02:40:31;;;;;;;127.75;85.82;;;;;;;12.15;nan;99104.09;5063828;28;20054;-68
2023/12/08 02:43:02;;;;;;;129.10;85.88;;;;;;;12.32;nan;99107.28;5044093;28;20049;-67
2023/12/08 02:45:32;;;;;;;125.55;84.82;;;;;;;12.46;nan;99098.38;5060428;28;20475;-68
2023/12/08 02:48:01;;;;;;;132.55;86.05;;;;;;;12.51;nan;99100.47;5046046;28;20569;-70
2023/12/08 02:50:31;;;;;;;128.32;85.25;;;;;;;12.57;nan;99099.66;5036395;28;20064;-68
2023/12/08 02:53:00;;;;;;;114.70;82.88;;;;;;;12.63;nan;99103.38;5044074;28;20052;-67
2023/12/08 02:55:30;;;;;;;136.68;85.90;;;;;;;12.80;nan;99118.81;5045372;28;20499;-68
2023/12/08 02:58:00;;;;;;;119.93;84.60;;;;;;;12.80;nan;99113.50;5045146;28;20052;-68
2023/12/08 03:00:30;;;;;;;128.02;84.95;;;;;;;12.80;nan;99115.31;5061710;28;20065;-68
2023/12/08 03:03:00;;;;;;;118.72;85.90;;;;;;;12.88;nan;99118.63;5063595;28;20073;-68
2023/12/08 03:05:29;;;;;;;111.47;82.63;;;;;;;12.98;nan;99120.94;5063840;28;20137;-68
2023/12/08 03:07:59;;;;;;;116.18;82.18;;;;;;;13.11;nan;99133.50;5064058;28;20044;-68
2023/12/08 03:10:28;;;;;;;118.82;82.13;;;;;;;13.29;nan;99131.94;5061571;28;20131;-68
2023/12/08 03:12:59;;;;;;;126.45;85.30;;;;;;;13.45;nan;99136.91;5063941;28;20056;-68
2023/12/08 03:15:29;;;;;;;129.45;85.82;;;;;;;13.60;nan;99128.75;5060301;28;20048;-68
2023/12/08 03:17:58;;;;;;;131.32;86.25;;;;;;;13.72;nan;99131.69;5030854;28;20143;-68
2023/12/08 03:20:28;;;;;;;124.95;86.68;;;;;;;14.01;nan;99128.63;5066899;28;20384;-68
2023/12/08 03:22:57;;;;;;;117.55;85.10;;;;;;;14.31;nan;99132.53;5032030;28;20056;-68
2023/12/08 03:25:27;;;;;;;127.72;85.65;;;;;;;14.86;nan;99126.94;5061371;28;20068;-68
2023/12/08 03:27:56;;;;;;;119.95;83.55;;;;;;;15.39;nan;99130.22;5064198;28;20139;-68
2023/12/08 03:30:26;;;;;;;116.55;78.50;;;;;;;15.84;nan;99142.53;5067039;28;20040;-68
2023/12/08 03:32:55;;;;;;;126.75;81.05;;;;;;;16.57;nan;99146.28;5056063;28;20543;-68
2023/12/08 03:35:24;;;;;;;113.53;77.72;;;;;;;16.95;nan;99148.78;5050177;28;20044;-69
2023/12/08 03:37:55;;;;;;;103.38;73.95;;;;;;;16.99;nan;99155.31;5063668;28;20048;-69
2023/12/08 03:40:24;;;;;;;98.38;72.07;;;;;;;17.11;nan;99160.78;5063754;28;20046;-68
2023/12/08 03:42:54;;;;;;;103.22;74.93;;;;;;;17.78;nan;99153.56;5064388;28;20155;-68
2023/12/08 03:45:24;;;;;;;92.25;70.13;;;;;;;18.03;nan;99158.75;5062593;28;20121;-68
2023/12/08 03:47:53;;;;;;;102.70;69.38;;;;;;;18.53;nan;99164.59;5066889;28;20082;-68
2023/12/08 03:50:22;;;;;;;91.93;66.00;;;;;;;18.59;nan;99167.16;5051404;28;20045;-68
2023/12/08 03:52:54;;;;;;;97.95;64.22;;;;;;;18.72;nan;99166.91;5061087;28;20063;-68
2023/12/08 03:55:24;;;;;;;90.53;62.42;;;;;;;19.34;nan;99161.81;5066920;28;20098;-68
2023/12/08 03:57:53;;;;;;;87.28;59.88;;;;;;;19.71;nan;99168.50;5062730;28;20652;-68
2023/12/08 04:00:23;;;;;;;86.47;59.17;;;;;;;20.27;nan;99169.50;5074466;28;20056;-68
2023/12/08 04:02:52;;;;;;;81.97;60.15;;;;;;;21.33;nan;99181.09;5071771;28;20651;-68
2023/12/08 04:05:22;;;;;;;86.88;57.75;;;;;;;21.84;nan;99175.22;5046121;28;20126;-68
2023/12/08 04:07:51;;;;;;;80.88;58.28;;;;;;;22.47;nan;99178.25;5055534;28;20474;-68
2023/12/08 04:10:21;;;;;;;76.15;52.55;;;;;;;23.47;nan;99182.72;5067121;28;20090;-68
2023/12/08 04:12:50;;;;;;;71.38;49.47;;;;;;;23.24;nan;99187.44;5064910;28;20136;-68
2023/12/08 04:15:19;;;;;;;69.97;50.40;;;;;;;23.43;nan;99185.09;5060126;28;20078;-68
2023/12/08 04:17:49;;;;;;;74.55;51.85;;;;;;;23.91;nan;99188.53;5079623;28;20060;-68
2023/12/08 04:20:19;;;;;;;69.40;52.53;;;;;;;23.19;nan;99186.63;5077785;28;20146;-68
2023/12/08 04:22:49;;;;;;;73.10;50.45;;;;;;;23.69;nan;99188.72;5076986;28;20163;-68
2023/12/08 04:25:18;;;;;;;60.80;46.83;;;;;;;24.03;nan;99187.19;5078469;28;20054;-68
2023/12/08 04:27:48;;;;;;;71.65;51.50;;;;;;;23.37;nan;99194.25;5070934;28;20056;-68
2023/12/08 04:30:17;;;;;;;68.15;49.53;;;;;;;23.49;nan;99197.59;5062773;28;20488;-68
2023/12/08 04:32:47;;;;;;;70.05;50.83;;;;;;;23.58;nan;99195.19;5066751;28;20079;-68
2023/12/08 04:35:16;;;;;;;70.80;52.88;;;;;;;23.32;nan;99188.03;5059291;28;20052;-68
2023/12/08 04:37:46;;;;;;;63.22;49.13;;;;;;;23.41;nan;99199.97;5051136;28;20056;-66
2023/12/08 04:40:15;;;;;;;73.22;55.15;;;;;;;22.62;nan;99187.28;5040124;28;20044;-66
2023/12/08 04:42:45;;;;;;;71.78;53.85;;;;;;;22.11;nan;99196.03;5056690;28;20051;-67
2023/12/08 04:45:14;;;;;;;65.25;51.35;;;;;;;22.29;nan;99188.38;5057864;28;20098;-67
2023/12/08 04:47:44;;;;;;;66.32;51.70;;;;;;;22.04;nan;99184.63;5063299;28;20074;-66
2023/12/08 04:50:14;;;;;;;69.72;53.90;;;;;;;21.90;nan;99192.28;5075422;28;20139;-67
2023/12/08 04:52:43;;;;;;;78.13;54.90;;;;;;;20.82;nan;99180.38;5042726;28;20625;-66
2023/12/08 04:55:13;;;;;;;65.82;52.30;;;;;;;21.09;nan;99177.78;5062065;28;20054;-66
2023/12/08 04:57:42;;;;;;;69.00;51.03;;;;;;;21.12;nan;99171.06;5054954;28;20050;-67
2023/12/08 05:00:13;;;;;;;71.80;49.05;;;;;;;21.01;nan;99165.56;5076737;28;20044;-65
2023/12/08 05:02:42;;;;;;;59.33;45.42;;;;;;;20.69;nan;99179.88;5077886;28;20127;-66
2023/12/08 05:05:12;;;;;;;59.42;45.25;;;;;;;20.97;nan;99169.81;5071883;28;20459;-66
2023/12/08 05:07:41;;;;;;;57.20;45.38;;;;;;;20.50;nan;99177.44;5071726;28;20051;-66
2023/12/08 05:10:11;;;;;;;53.03;42.85;;;;;;;20.76;nan;99172.44;5060973;28;20135;-66
2023/12/08 05:12:40;;;;;;;56.83;42.28;;;;;;;20.65;nan;99178.75;5061197;28;20129;-66
2023/12/08 05:15:10;;;;;;;49.80;38.83;;;;;;;20.31;nan;99169.88;5058999;28;20044;-66
2023/12/08 05:17:40;;;;;;;53.90;39.10;;;;;;;20.61;nan;99162.28;5065055;28;20045;-66
2023/12/08 05:20:12;;;;;;;59.65;42.53;;;;;;;20.60;nan;99153.41;5067403;28;20052;-66
2023/12/08 05:22:42;;;;;;;57.65;41.88;;;;;;;20.66;nan;99140.84;5066617;28;20792;-66
2023/12/08 05:25:12;;;;;;;65.32;44.95;;;;;;;20.56;nan;99146.88;5070391;28;20062;-66
2023/12/08 05:27:42;;;;;;;70.00;51.70;;;;;;;20.78;nan;99138.03;5047725;28;20045;-66
2023/12/08 05:30:12;;;;;;;99.35;60.00;;;;;;;20.50;nan;99131.69;5065449;28;20049;-65
2023/12/08 05:32:42;;;;;;;102.72;72.00;;;;;;;20.50;nan;99125.50;5065480;28;20101;-66
2023/12/08 05:35:13;;;;;;;99.65;71.78;;;;;;;20.72;nan;99144.38;5062416;28;20560;-65
2023/12/08 05:37:43;;;;;;;87.00;60.15;;;;;;;20.55;nan;99139.03;5040448;28;20049;-71
2023/12/08 05:40:13;;;;;;;103.78;75.00;;;;;;;20.58;nan;99142.03;5036872;28;20140;-71
2023/12/08 05:42:43;;;;;;;109.63;65.53;;;;;;;20.80;nan;99139.41;5042000;28;20049;-69
2023/12/08 05:45:13;;;;;;;103.65;72.93;;;;;;;20.80;nan;99134.00;5042943;28;20096;-70
2023/12/08 05:47:43;;;;;;;108.47;83.55;;;;;;;20.71;nan;99132.03;5040995;28;20190;-70
2023/12/08 05:50:13;;;;;;;115.93;82.57;;;;;;;20.85;nan;99128.72;5044616;28;20045;-69
2023/12/08 05:52:42;;;;;;;85.50;63.58;;;;;;;21.20;nan;99128.38;5050038;28;20053;-65
2023/12/08 05:55:11;;;;;;;95.82;69.30;;;;;;;21.14;nan;99124.00;5028421;28;20507;-65
2023/12/08 05:57:41;;;;;;;89.32;64.25;;;;;;;21.43;nan;99135.41;5031693;28;20053;-65
2023/12/08 06:00:11;;;;;;;81.10;60.58;;;;;;;21.53;nan;99132.81;5045309;28;20362;-66
2023/12/08 06:02:41;;;;;;;80.40;56.22;;;;;;;21.77;nan;99125.28;5026042;28;20042;-65
2023/12/08 06:05:12;;;;;;;69.13;49.95;;;;;;;21.92;nan;99126.25;5044375;28;20163;-66
2023/12/08 06:07:42;;;;;;;53.58;35.10;;;;;;;21.56;nan;99118.00;5042754;28;20098;-68
2023/12/08 06:10:12;;;;;;;53.88;40.15;;;;;;;21.40;nan;99112.47;5055387;28;20052;-68
2023/12/08 06:12:41;;;;;;;47.28;36.67;;;;;;;21.65;nan;99111.91;5040102;28;20060;-63
2023/12/08 06:15:11;;;;;;;68.32;45.10;;;;;;;21.63;nan;99124.03;5033917;28;20110;-66
2023/12/08 06:17:40;;;;;;;69.85;48.25;;;;;;;21.60;nan;99114.56;5041437;28;20163;-65
2023/12/08 06:20:11;;;;;;;67.18;43.75;;;;;;;21.86;nan;99124.53;5043891;28;20044;-64
2023/12/08 06:22:41;;;;;;;47.45;35.72;;;;;;;21.80;nan;99119.34;5042991;28;20501;-66
2023/12/08 06:25:11;;;;;;;45.42;32.38;;;;;;;21.82;nan;99112.63;5054644;28;20052;-66
2023/12/08 06:27:40;;;;;;;60.75;34.40;;;;;;;21.82;nan;99109.13;5036611;28;20552;-66
2023/12/08 06:30:11;;;;;;;53.78;37.40;;;;;;;21.83;nan;99102.66;5029825;28;20126;-66
2023/12/08 06:32:40;;;;;;;49.70;34.58;;;;;;;21.92;nan;99101.97;5023204;28;20076;-66
2023/12/08 06:35:10;;;;;;;48.78;33.60;;;;;;;21.70;nan;99103.88;5021485;28;20052;-66
2023/12/08 06:37:40;;;;;;;52.08;33.67;;;;;;;21.71;nan;99093.91;5065024;28;20500;-66
2023/12/08 06:40:10;;;;;;;48.25;33.63;;;;;;;22.00;nan;99103.38;5080616;28;20052;-65
2023/12/08 06:42:40;;;;;;;48.00;36.00;;;;;;;21.84;nan;99096.19;5060925;28;20048;-66
2023/12/08 06:45:10;;;;;;;57.10;34.85;;;;;;;22.12;nan;99095.97;5067392;28;20098;-66
2023/12/08 06:47:39;;;;;;;51.05;35.22;;;;;;;22.28;nan;99088.78;5060478;28;20037;-65
2023/12/08 06:50:10;;;;;;;51.13;37.03;;;;;;;22.21;nan;99085.50;5067623;28;20063;-66
2023/12/08 06:52:39;;;;;;;47.03;31.95;;;;;;;22.33;nan;99064.53;5060386;28;20044;-65
2023/12/08 06:55:09;;;;;;;48.22;34.95;;;;;;;22.39;nan;99061.59;5063326;28;20359;-65
2023/12/08 06:57:39;;;;;;;45.25;31.73;;;;;;;22.35;nan;99062.38;5068127;28;20552;-66
2023/12/08 07:00:10;;;;;;;53.40;32.75;;;;;;;22.11;nan;99070.03;5067213;28;20373;-66
2023/12/08 07:02:39;;;;;;;43.45;33.63;;;;;;;22.28;nan;99068.00;5072392;28;20052;-66
2023/12/08 07:05:09;;;;;;;49.60;34.22;;;;;;;22.35;nan;99063.19;5072199;28;20141;-66
2023/12/08 07:07:38;;;;;;;51.05;35.15;;;;;;;22.23;nan;99070.66;5062351;28;20076;-66
2023/12/08 07:10:09;;;;;;;53.17;41.53;;;;;;;22.12;nan;99068.97;5065031;28;20056;-67
2023/12/08 07:12:39;;;;;;;64.53;47.47;;;;;;;22.14;nan;99060.59;5047059;28;20138;-65
2023/12/08 07:15:10;;;;;;;77.93;54.15;;;;;;;21.95;nan;99060.22;5068747;28;20055;-67
2023/12/08 07:17:40;;;;;;;82.30;54.88;;;;;;;21.88;nan;99044.19;5059470;28;20040;-65
2023/12/08 07:20:11;;;;;;;65.35;50.60;;;;;;;22.19;nan;99047.16;5069043;28;20586;-66
2023/12/08 07:22:41;;;;;;;74.20;54.67;;;;;;;22.26;nan;99045.06;5065624;28;20195;-66
2023/12/08 07:25:13;;;;;;;70.60;51.95;;;;;;;22.17;nan;99035.81;5063621;28;20358;-65
2023/12/08 07:27:42;;;;;;;68.78;49.60;;;;;;;22.31;nan;99034.28;5065961;28;20480;-65
2023/12/08 07:30:12;;;;;;;63.90;44.85;;;;;;;22.29;nan;99031.84;5062819;28;20098;-66
2023/12/08 07:32:41;;;;;;;60.90;41.88;;;;;;;22.20;nan;99032.59;5062160;28;20056;-66
2023/12/08 07:35:11;;;;;;;56.15;41.75;;;;;;;22.13;nan;99032.03;5057035;28;20426;-66
2023/12/08 07:37:41;;;;;;;56.72;42.30;;;;;;;22.09;nan;99020.09;5063743;28;20044;-66
2023/12/08 07:40:11;;;;;;;57.17;41.22;;;;;;;22.24;nan;99022.91;5068897;28;20064;-65
2023/12/08 07:42:43;;;;;;;59.03;41.95;;;;;;;22.19;nan;99015.59;5062005;28;20294;-65
2023/12/08 07:45:13;;;;;;;58.13;40.50;;;;;;;22.09;nan;99003.91;5060199;28;20067;-65
2023/12/08 07:47:42;;;;;;;57.88;41.22;;;;;;;22.09;nan;99010.13;5060510;28;20122;-65
2023/12/08 07:50:15;;;;;;;;;;;;;;;22.08;nan;99003.13;5063033;28;20044;-65
2023/12/08 07:52:45;;;;;;;62.88;44.15;;;;;;;22.16;nan;98999.13;5060852;28;19947;-65
2023/12/08 07:55:16;;;;;;;63.95;43.55;;;;;;;22.18;nan;98997.78;5062319;28;20105;-65
2023/12/08 07:57:46;;;;;;;62.08;45.15;;;;;;;22.14;nan;98985.88;5065105;28;20063;-65
2023/12/08 08:00:16;;;;;;;59.85;42.78;;;;;;;22.24;nan;98991.34;5064880;28;20052;-65
2023/12/08 08:02:45;;;;;;;67.28;45.88;;;;;;;22.29;nan;98987.88;5058743;28;20133;-65
2023/12/08 08:05:16;;;;;;;63.88;42.58;;;;;;;22.21;nan;98981.09;5064306;28;20102;-67
2023/12/08 08:07:45;;;;;;;49.65;34.08;;;;;;;22.21;nan;98974.88;5063162;28;20433;-66
2023/12/08 08:10:15;;;;;;;42.17;31.13;;;;;;;22.22;nan;98977.28;5058722;28;20061;-66
2023/12/08 08:12:44;;;;;;;47.55;32.22;;;;;;;22.33;nan;98967.38;5064843;28;20063;-66
2023/12/08 08:15:13;;;;;;;41.78;31.40;;;;;;;22.39;nan;98963.63;5060353;28;20049;-66
2023/12/08 08:17:43;;;;;;;40.00;27.30;;;;;;;22.32;nan;98955.75;5065645;28;20131;-66
2023/12/08 08:20:12;;;;;;;41.00;29.35;;;;;;;22.36;nan;98958.75;5062839;28;20047;-66
2023/12/08 08:22:42;;;;;;;42.47;29.00;;;;;;;22.34;nan;98955.50;5061301;28;20062;-66
2023/12/08 08:25:12;;;;;;;44.45;30.77;;;;;;;22.35;nan;98955.22;5060865;28;20048;-66
2023/12/08 08:27:41;;;;;;;35.47;29.40;;;;;;;22.19;nan;98952.72;5049151;28;20543;-67
2023/12/08 08:30:11;;;;;;;36.13;28.20;;;;;;;22.23;nan;98941.16;5050770;28;20099;-65
2023/12/08 08:32:40;;;;;;;41.55;27.08;;;;;;;22.19;nan;98940.03;5068704;28;20049;-67
2023/12/08 08:35:10;;;;;;;34.78;28.75;;;;;;;22.27;nan;98936.03;5068218;28;20068;-67
2023/12/08 08:37:39;;;;;;;29.20;24.85;;;;;;;22.22;nan;98934.13;5062237;28;20044;-66
2023/12/08 08:40:09;;;;;;;42.95;25.90;;;;;;;22.23;nan;98926.84;5048637;28;20076;-66
2023/12/08 08:42:38;;;;;;;35.50;25.73;;;;;;;22.21;nan;98920.91;5064451;28;20135;-66
2023/12/08 08:45:08;;;;;;;44.20;32.65;;;;;;;22.26;nan;98919.03;5059069;28;20037;-66
2023/12/08 08:47:39;;;;;;;37.45;26.27;;;;;;;22.19;nan;98913.06;5052823;28;20097;-66
2023/12/08 08:50:09;;;;;;;38.22;26.50;;;;;;;22.18;nan;98906.03;5065763;28;20531;-68
2023/12/08 08:52:39;;;;;;;47.25;34.95;;;;;;;22.35;nan;98911.22;5061423;28;20049;-68
2023/12/08 08:55:10;;;;;;;35.42;27.35;;;;;;;22.22;nan;98900.91;5060740;28;20135;-65
2023/12/08 08:57:40;;;;;;;40.65;28.85;;;;;;;22.17;nan;98903.63;5061962;28;20036;-68
2023/12/08 09:00:12;;;;;;;41.47;28.00;;;;;;;22.18;nan;98908.72;5065707;28;20144;-67
2023/12/08 09:02:43;;;;;;;38.30;27.40;;;;;;;22.17;nan;98899.00;5028361;28;20392;-66
2023/12/08 09:05:14;;;;;;;42.40;28.55;;;;;;;22.16;nan;98899.28;5046243;28;20040;-66
2023/12/08 09:07:44;;;;;;;43.28;28.90;;;;;;;22.09;nan;98904.09;5070111;28;20036;-65
2023/12/08 09:10:15;;;;;;;35.30;24.63;;;;;;;22.04;nan;98898.69;5070046;28;20048;-65
2023/12/08 09:12:46;;;;;;;39.30;27.83;;;;;;;22.10;nan;98900.34;5066072;28;20060;-65
2023/12/08 09:15:15;;;;;;;35.17;26.17;;;;;;;22.07;nan;98893.59;5065157;28;20041;-66
2023/12/08 09:17:45;;;;;;;38.33;26.45;;;;;;;22.02;nan;98888.16;5060676;28;20044;-65
2023/12/08 09:20:16;;;;;;;37.28;25.15;;;;;;;21.99;nan;98885.19;5060689;28;20125;-66
2023/12/08 09:22:46;;;;;;;34.55;25.00;;;;;;;21.94;nan;98877.88;5063629;28;20056;-66
2023/12/08 09:25:15;;;;;;;30.00;22.95;;;;;;;21.93;nan;98873.53;5061223;28;20048;-69
2023/12/08 09:27:45;;;;;;;38.15;25.45;;;;;;;21.91;nan;98875.66;5068008;28;20040;-69
2023/12/08 09:30:14;;;;;;;36.60;25.05;;;;;;;21.91;nan;98873.75;5065325;28;20044;-69
2023/12/08 09:32:45;;;;;;;34.17;23.40;;;;;;;21.88;nan;98873.47;5073142;28;20139;-68
2023/12/08 09:35:15;;;;;;;23.13;16.85;;;;;;;21.71;nan;98865.56;5067923;28;20803;-68
2023/12/08 09:37:45;;;;;;;23.88;16.92;;;;;;;21.73;nan;98870.72;5061827;28;20048;-68
2023/12/08 09:40:17;;;;;;;26.90;18.48;;;;;;;21.68;nan;98876.88;5065749;28;20741;-68
2023/12/08 09:42:55;;;;;;;23.75;17.00;;;;;;;21.71;nan;98867.44;5068009;28;20044;-70
2023/12/08 09:45:25;;;;;;;27.10;17.70;;;;;;;21.67;nan;98867.16;5066230;28;20041;-69
2023/12/08 09:47:55;;;;;;;25.33;17.30;;;;;;;21.62;nan;98867.13;5065877;28;20127;-69
2023/12/08 09:50:26;;;;;;;25.17;17.92;;;;;;;21.65;nan;98860.41;5061879;28;20121;-70
2023/12/08 09:52:56;;;;;;;23.63;16.60;;;;;;;21.60;nan;98861.16;5064675;28;20046;-70
2023/12/08 09:55:28;;;;;;;26.23;19.15;;;;;;;21.61;nan;98852.03;5065149;28;20048;-70
2023/12/08 09:58:01;;;;;;;35.17;17.60;;;;;;;21.58;nan;98849.84;5059617;28;20044;-65
2023/12/08 10:00:34;;;;;;;26.17;17.92;;;;;;;21.49;nan;98854.91;5058910;28;20166;-68
2023/12/08 10:03:04;;;;;;;26.08;16.60;;;;;;;21.45;nan;98853.81;5044961;28;20044;-71
2023/12/08 10:05:34;;;;;;;24.23;17.92;;;;;;;21.44;nan;98848.69;5026737;28;20059;-70
2023/12/08 10:08:04;;;;;;;23.67;16.92;;;;;;;21.38;nan;98842.44;5062851;28;20075;-70
2023/12/08 10:10:34;;;;;;;27.25;18.10;;;;;;;21.40;nan;98842.19;5063133;28;20372;-71
2023/12/08 10:13:04;;;;;;;29.42;17.33;;;;;;;21.35;nan;98847.53;5072763;28;20829;-70
2023/12/08 10:15:34;;;;;;;27.15;17.45;;;;;;;21.31;nan;98844.53;5067376;28;20055;-68
2023/12/08 10:18:03;;;;;;;25.50;17.67;;;;;;;21.28;nan;98841.56;5071329;28;20384;-68
2023/12/08 10:20:32;;;;;;;23.08;18.20;;;;;;;21.28;nan;98833.47;5070149;28;20561;-68
2023/12/08 10:23:02;;;;;;;25.48;18.92;;;;;;;21.24;nan;98835.88;5066256;28;20117;-69
2023/12/08 10:25:31;;;;;;;25.70;19.27;;;;;;;21.17;nan;98834.47;5062362;28;20101;-69
2023/12/08 10:28:02;;;;;;;28.25;17.85;;;;;;;21.08;nan;98837.59;5068527;28;20033;-68
2023/12/08 10:30:32;;;;;;;32.50;17.90;;;;;;;21.05;nan;98831.91;5068871;28;20055;-68
2023/12/08 10:33:01;;;;;;;26.30;19.10;;;;;;;21.03;nan;98834.03;5063392;28;20059;-68
2023/12/08 10:35:31;;;;;;;25.75;19.30;;;;;;;20.98;nan;98840.19;5066998;28;20044;-68
2023/12/08 10:38:02;;;;;;;27.67;18.63;;;;;;;20.89;nan;98835.56;5069450;28;20052;-69
2023/12/08 10:40:31;;;;;;;24.63;18.00;;;;;;;20.87;nan;98845.75;5063118;28;20051;-72
2023/12/08 10:43:01;;;;;;;27.45;18.33;;;;;;;20.84;nan;98846.28;5058521;28;20052;-68
2023/12/08 10:45:31;;;;;;;29.85;19.15;;;;;;;20.81;nan;98850.28;5062559;28;20041;-68
2023/12/08 10:48:03;;;;;;;27.70;18.83;;;;;;;20.70;nan;98853.13;5060308;28;20191;-69
2023/12/08 10:50:34;;;;;;;30.98;21.05;;;;;;;20.85;nan;98843.31;5065394;28;20471;-66
2023/12/08 10:53:06;;;;;;;29.33;20.95;;;;;;;20.84;nan;98849.78;5062822;28;20049;-69
2023/12/08 10:55:35;;;;;;;28.13;20.70;;;;;;;20.87;nan;98841.19;5058390;28;20052;-67
2023/12/08 10:58:08;;;;;;;27.50;19.48;;;;;;;20.84;nan;98840.91;5059650;28;20071;-67
2023/12/08 11:00:39;;;;;;;29.83;17.70;;;;;;;20.77;nan;98841.09;5061578;28;20091;-66
2023/12/08 11:03:13;;;;;;;27.75;16.50;;;;;;;20.47;nan;98841.59;5060961;28;20489;-65
2023/12/08 11:05:47;;;;;;;27.25;17.75;;;;;;;20.30;nan;98845.44;5062558;28;20126;-66
2023/12/08 11:08:18;;;;;;;28.05;17.88;;;;;;;20.15;nan;98843.34;5067442;28;20071;-64
2023/12/08 11:10:55;;;;;;;24.63;17.75;;;;;;;20.04;nan;98841.59;5065671;28;20048;-65
2023/12/08 11:13:38;;;;;;;31.63;18.38;;;;;;;19.91;nan;98841.97;5066240;28;20041;-65
2023/12/08 11:16:26;;;;;;;31.27;18.20;;;;;;;19.86;nan;98847.28;5070841;28;20044;-69
2023/12/08 11:18:56;;;;;;;29.75;17.33;;;;;;;19.72;nan;98854.88;5066547;28;20752;-70
2023/12/08 11:21:27;;;;;;;34.45;19.13;;;;;;;19.62;nan;98858.25;5060577;28;20114;-67
2023/12/08 11:23:57;;;;;;;31.95;18.85;;;;;;;19.51;nan;98853.78;5068627;28;20052;-67
2023/12/08 11:26:49;;;;;;;27.55;18.38;;;;;;;19.38;nan;98858.66;5066201;28;20139;-67
2023/12/08 11:29:43;;;;;;;31.60;19.13;;;;;;;19.39;nan;98855.69;5066688;28;20048;-62
2023/12/08 11:32:20;;;;;;;32.85;18.48;;;;;;;19.39;nan;98860.25;5071248;28;20134;-64
2023/12/08 11:35:03;;;;;;;33.78;17.90;;;;;;;19.29;nan;98863.63;5068300;28;20068;-62
2023/12/08 11:37:35;;;;;;;33.28;19.73;;;;;;;19.34;nan;98861.00;5068130;28;20059;-63
2023/12/08 11:40:11;;;;;;;;;;;;;;;19.22;nan;98866.47;5070149;28;20044;-63
2023/12/08 11:42:43;;;;;;;34.85;19.40;;;;;;;19.04;nan;98860.50;5058330;28;20364;-65
2023/12/08 11:45:13;;;;;;;33.30;19.83;;;;;;;18.92;nan;98857.09;5065269;28;20048;-65